createdAt,value
2023-02-14T00:00:54.003Z,1.2
2023-02-14T00:01:55.161Z,1.2
2023-02-14T00:02:56.637Z,1.2
2023-02-14T00:03:58.140Z,1.2
2023-02-14T00:04:59.637Z,1.2
2023-02-14T00:06:00.828Z,1.2
2023-02-14T00:07:02.231Z,1.2
2023-02-14T00:08:03.637Z,1.2
2023-02-14T00:09:04.540Z,1.2
2023-02-14T00:10:05.664Z,1.1
2023-02-14T00:11:07.396Z,1.1
2023-02-14T00:12:08.782Z,1.1
2023-02-14T00:13:09.942Z,1.1
2023-02-14T00:14:11.047Z,1.1
2023-02-14T00:15:12.463Z,1
2023-02-14T00:16:13.666Z,1
2023-02-14T00:17:14.504Z,1
2023-02-14T00:18:15.849Z,1
2023-02-14T00:19:20.249Z,1
2023-02-14T00:20:21.387Z,1
2023-02-14T00:21:22.818Z,1
2023-02-14T00:22:23.995Z,0.9
2023-02-14T00:23:25.409Z,0.9
2023-02-14T00:24:26.824Z,0.9
2023-02-14T00:25:28.253Z,0.9
2023-02-14T00:26:29.138Z,0.9
2023-02-14T00:27:30.040Z,0.9
2023-02-14T00:28:31.237Z,0.9
2023-02-14T00:29:32.349Z,0.9
2023-02-14T00:30:33.597Z,0.9
2023-02-14T00:31:35.427Z,0.9
2023-02-14T00:32:36.433Z,0.9
2023-02-14T00:33:37.575Z,0.9
2023-02-14T00:34:38.711Z,0.9
2023-02-14T00:35:39.374Z,0.9
2023-02-14T00:36:40.275Z,0.9
2023-02-14T00:37:41.170Z,0.9
2023-02-14T00:38:42.310Z,0.9
2023-02-14T00:39:43.728Z,0.9
2023-02-14T00:40:44.877Z,0.9
2023-02-14T00:41:46.360Z,0.9
2023-02-14T00:42:47.228Z,0.9
2023-02-14T00:43:48.394Z,0.9
2023-02-14T00:44:49.504Z,0.9
2023-02-14T00:45:50.712Z,0.9
2023-02-14T00:46:51.789Z,0.9
2023-02-14T00:47:52.926Z,0.8
2023-02-14T00:48:54.104Z,0.9
2023-02-14T00:49:54.963Z,0.8
2023-02-14T00:50:56.021Z,0.8
2023-02-14T00:51:58.370Z,0.8
2023-02-14T00:52:59.783Z,0.8
2023-02-14T00:54:00.639Z,0.8
2023-02-14T00:55:01.778Z,0.8
2023-02-14T00:56:03.210Z,0.8
2023-02-14T00:57:04.331Z,0.8
2023-02-14T00:58:05.749Z,0.8
2023-02-14T00:59:06.911Z,0.8
2023-02-14T01:00:08.302Z,0.8
2023-02-14T01:01:09.746Z,0.7
2023-02-14T01:02:11.267Z,0.7
2023-02-14T01:03:12.781Z,0.7
2023-02-14T01:04:14.194Z,0.7
2023-02-14T01:05:15.613Z,0.7
2023-02-14T01:06:17.043Z,0.7
2023-02-14T01:07:18.465Z,0.7
2023-02-14T01:08:19.863Z,0.7
2023-02-14T01:09:21.308Z,0.7
2023-02-14T01:10:22.696Z,0.7
2023-02-14T01:11:24.122Z,0.7
2023-02-14T01:12:25.242Z,0.7
2023-02-14T01:13:26.661Z,0.7
2023-02-14T01:14:28.186Z,0.7
2023-02-14T01:15:29.155Z,0.7
2023-02-14T01:16:30.602Z,0.7
2023-02-14T01:17:31.621Z,0.7
2023-02-14T01:18:33.039Z,0.7
2023-02-14T01:19:33.898Z,0.7
2023-02-14T01:20:35.319Z,0.7
2023-02-14T01:21:36.736Z,0.7
2023-02-14T01:22:37.864Z,0.7
2023-02-14T01:23:39.286Z,0.7
2023-02-14T01:24:40.696Z,0.7
2023-02-14T01:25:41.885Z,0.7
2023-02-14T01:26:42.783Z,0.7
2023-02-14T01:27:44.189Z,0.7
2023-02-14T01:28:45.609Z,0.7
2023-02-14T01:29:47.089Z,0.6
2023-02-14T01:30:48.524Z,0.7
2023-02-14T01:31:49.935Z,0.7
2023-02-14T01:32:51.297Z,0.6
2023-02-14T01:33:52.711Z,0.7
2023-02-14T01:34:53.844Z,0.6
2023-02-14T01:35:54.982Z,0.6
2023-02-14T01:36:56.768Z,0.6
2023-02-14T01:37:57.903Z,0.6
2023-02-14T01:38:59.086Z,0.6
2023-02-14T01:40:00.540Z,0.6
2023-02-14T01:41:02.109Z,0.6
2023-02-14T01:42:03.342Z,0.6
2023-02-14T01:43:04.778Z,0.6
2023-02-14T01:44:06.196Z,0.6
2023-02-14T01:45:07.401Z,0.6
2023-02-14T01:46:08.564Z,0.6
2023-02-14T01:47:09.926Z,0.6
2023-02-14T01:48:11.058Z,0.6
2023-02-14T01:49:12.193Z,0.6
2023-02-14T01:50:13.610Z,0.6
2023-02-14T01:51:15.083Z,0.6
2023-02-14T01:52:16.358Z,0.6
2023-02-14T01:53:17.779Z,0.6
2023-02-14T01:54:18.671Z,0.6
2023-02-14T01:55:20.085Z,0.6
2023-02-14T01:56:21.240Z,0.6
2023-02-14T01:57:22.645Z,0.6
2023-02-14T01:58:24.063Z,0.6
2023-02-14T01:59:25.474Z,0.6
2023-02-14T02:00:26.642Z,0.6
2023-02-14T02:01:28.115Z,0.6
2023-02-14T02:02:29.304Z,0.6
2023-02-14T02:03:30.322Z,0.6
2023-02-14T02:04:31.736Z,0.6
2023-02-14T02:05:33.153Z,0.6
2023-02-14T02:06:34.581Z,0.7
2023-02-14T02:07:35.709Z,0.6
2023-02-14T02:08:36.844Z,0.7
2023-02-14T02:09:38.257Z,0.7
2023-02-14T02:10:39.672Z,0.7
2023-02-14T02:11:41.102Z,0.7
2023-02-14T02:12:42.508Z,0.7
2023-02-14T02:13:43.690Z,0.7
2023-02-14T02:14:45.104Z,0.7
2023-02-14T02:15:46.550Z,0.7
2023-02-14T02:16:48.184Z,0.7
2023-02-14T02:17:49.365Z,0.7
2023-02-14T02:18:50.780Z,0.7
2023-02-14T02:19:52.196Z,0.7
2023-02-14T02:20:53.617Z,0.7
2023-02-14T02:21:54.766Z,0.7
2023-02-14T02:22:55.625Z,0.7
2023-02-14T02:23:56.743Z,0.7
2023-02-14T02:24:58.158Z,0.7
2023-02-14T02:25:59.314Z,0.7
2023-02-14T02:27:00.726Z,0.7
2023-02-14T02:28:02.129Z,0.7
2023-02-14T02:29:03.564Z,0.7
2023-02-14T02:30:05.052Z,0.8
2023-02-14T02:31:06.131Z,0.8
2023-02-14T02:32:07.558Z,0.8
2023-02-14T02:33:09.026Z,0.8
2023-02-14T02:34:10.157Z,0.8
2023-02-14T02:35:11.301Z,0.8
2023-02-14T02:36:12.434Z,0.8
2023-02-14T02:37:14.252Z,0.8
2023-02-14T02:38:15.200Z,0.8
2023-02-14T02:39:16.374Z,0.8
2023-02-14T02:40:17.508Z,0.8
2023-02-14T02:41:18.934Z,0.8
2023-02-14T02:42:20.371Z,0.8
2023-02-14T02:43:21.760Z,0.8
2023-02-14T02:44:23.171Z,0.8
2023-02-14T02:45:24.308Z,0.8
2023-02-14T02:46:25.812Z,0.8
2023-02-14T02:47:26.863Z,0.8
2023-02-14T02:48:27.981Z,0.8
2023-02-14T02:49:29.399Z,0.8
2023-02-14T02:50:30.813Z,0.8
2023-02-14T02:51:31.951Z,0.8
2023-02-14T02:52:33.391Z,0.8
2023-02-14T02:53:34.779Z,0.8
2023-02-14T02:54:35.919Z,0.8
2023-02-14T02:55:37.054Z,0.8
2023-02-14T02:56:38.470Z,0.8
2023-02-14T02:57:39.622Z,0.9
2023-02-14T02:58:40.774Z,0.8
2023-02-14T02:59:42.191Z,0.9
2023-02-14T03:00:43.609Z,0.9
2023-02-14T03:01:45.104Z,0.9
2023-02-14T03:02:46.528Z,0.9
2023-02-14T03:03:47.641Z,0.9
2023-02-14T03:04:48.803Z,0.9
2023-02-14T03:05:50.027Z,0.9
2023-02-14T03:06:51.474Z,0.9
2023-02-14T03:07:52.882Z,0.9
2023-02-14T03:08:54.008Z,1
2023-02-14T03:09:55.423Z,0.9
2023-02-14T03:10:56.854Z,1
2023-02-14T03:11:58.680Z,1
2023-02-14T03:13:00.108Z,1
2023-02-14T03:14:01.502Z,1
2023-02-14T03:15:02.917Z,1
2023-02-14T03:16:04.416Z,1
2023-02-14T03:17:06.054Z,1
2023-02-14T03:18:07.209Z,1
2023-02-14T03:19:08.337Z,1
2023-02-14T03:20:09.751Z,1
2023-02-14T03:21:10.893Z,1
2023-02-14T03:22:12.319Z,1
2023-02-14T03:23:13.739Z,1
2023-02-14T03:24:15.155Z,1
2023-02-14T03:25:16.572Z,1
2023-02-14T03:26:17.694Z,1
2023-02-14T03:27:19.119Z,1
2023-02-14T03:28:20.050Z,1
2023-02-14T03:29:21.431Z,1
2023-02-14T03:30:22.590Z,1
2023-02-14T03:31:24.925Z,1
2023-02-14T03:32:26.261Z,1
2023-02-14T03:33:27.671Z,1
2023-02-14T03:34:29.066Z,1
2023-02-14T03:35:30.478Z,1
2023-02-14T03:36:31.613Z,1
2023-02-14T03:37:32.760Z,1
2023-02-14T03:38:34.313Z,1
2023-02-14T03:39:35.410Z,1
2023-02-14T03:40:36.546Z,1
2023-02-14T03:41:37.963Z,1
2023-02-14T03:42:39.376Z,1.1
2023-02-14T03:43:40.823Z,1.1
2023-02-14T03:44:42.223Z,1.1
2023-02-14T03:45:43.344Z,1.1
2023-02-14T03:46:44.813Z,1.1
2023-02-14T03:47:46.544Z,1.1
2023-02-14T03:48:47.865Z,1.1
2023-02-14T03:49:48.998Z,1.1
2023-02-14T03:50:50.411Z,1.1
2023-02-14T03:51:51.828Z,1.1
2023-02-14T03:52:52.729Z,1.1
2023-02-14T03:53:54.163Z,1.1
2023-02-14T03:54:55.570Z,1.1
2023-02-14T03:55:56.694Z,1.1
2023-02-14T03:56:58.115Z,1.1
2023-02-14T03:57:59.251Z,1.1
2023-02-14T03:59:00.681Z,1.1
2023-02-14T04:00:02.086Z,1.1
2023-02-14T04:01:03.495Z,1.2
2023-02-14T04:02:04.913Z,1.2
2023-02-14T04:03:06.179Z,1.2
2023-02-14T04:04:07.639Z,1.2
2023-02-14T04:05:09.037Z,1.2
2023-02-14T04:06:10.446Z,1.2
2023-02-14T04:07:11.586Z,1.2
2023-02-14T04:08:13.001Z,1.2
2023-02-14T04:09:14.435Z,1.2
2023-02-14T04:10:15.830Z,1.2
2023-02-14T04:11:17.251Z,1.3
2023-02-14T04:12:21.756Z,1.3
2023-02-14T04:13:38.614Z,1.3
2023-02-14T04:14:40.083Z,1.3
2023-02-14T04:15:41.231Z,1.3
2023-02-14T04:16:42.327Z,1.3
2023-02-14T04:17:43.462Z,1.3
2023-02-14T04:18:44.626Z,1.4
2023-02-14T04:19:46.033Z,1.4
2023-02-14T04:20:47.428Z,1.4
2023-02-14T04:21:48.564Z,1.4
2023-02-14T04:22:49.983Z,1.4
2023-02-14T04:23:51.156Z,1.4
2023-02-14T04:24:52.348Z,1.5
2023-02-14T04:25:53.220Z,1.5
2023-02-14T04:26:54.634Z,1.5
2023-02-14T04:27:56.054Z,1.5
2023-02-14T04:28:57.466Z,1.5
2023-02-14T04:29:58.982Z,1.5
2023-02-14T04:31:00.538Z,1.5
2023-02-14T04:32:03.617Z,1.6
2023-02-14T04:33:05.053Z,1.6
2023-02-14T04:34:06.508Z,1.6
2023-02-14T04:35:07.914Z,1.6
2023-02-14T04:36:09.307Z,1.6
2023-02-14T04:37:10.294Z,1.6
2023-02-14T04:38:11.735Z,1.7
2023-02-14T04:39:12.872Z,1.7
2023-02-14T04:40:14.610Z,1.7
2023-02-14T04:41:15.981Z,1.7
2023-02-14T04:42:17.393Z,1.7
2023-02-14T04:43:18.534Z,1.7
2023-02-14T04:44:19.952Z,1.7
2023-02-14T04:45:21.378Z,1.7
2023-02-14T04:47:31.353Z,1.7
2023-02-14T04:48:32.481Z,1.7
2023-02-14T04:49:33.993Z,1.7
2023-02-14T04:50:34.996Z,1.7
2023-02-14T04:51:36.147Z,1.7
2023-02-14T04:52:37.261Z,1.7
2023-02-14T04:53:38.677Z,1.7
2023-02-14T04:54:39.572Z,1.8
2023-02-14T04:55:40.997Z,1.8
2023-02-14T04:56:42.475Z,1.8
2023-02-14T04:57:43.303Z,1.8
2023-02-14T04:58:44.438Z,1.8
2023-02-14T04:59:45.576Z,1.8
2023-02-14T05:00:46.798Z,1.8
2023-02-14T05:01:48.012Z,1.8
2023-02-14T05:02:49.502Z,1.8
2023-02-14T05:03:50.632Z,1.8
2023-02-14T05:04:52.073Z,1.8
2023-02-14T05:05:53.468Z,1.8
2023-02-14T05:06:54.626Z,1.8
2023-02-14T05:07:55.759Z,1.8
2023-02-14T05:08:56.873Z,1.8
2023-02-14T05:09:58.008Z,1.8
2023-02-14T05:10:59.650Z,1.8
2023-02-14T05:12:01.767Z,1.8
2023-02-14T05:13:02.641Z,1.8
2023-02-14T05:14:03.830Z,1.8
2023-02-14T05:15:05.249Z,1.8
2023-02-14T05:16:06.771Z,1.8
2023-02-14T05:17:07.760Z,1.8
2023-02-14T05:18:08.936Z,1.8
2023-02-14T05:19:10.359Z,1.7
2023-02-14T05:20:11.799Z,1.8
2023-02-14T05:21:13.186Z,1.7
2023-02-14T05:22:15.846Z,1.7
2023-02-14T05:23:19.314Z,1.7
2023-02-14T05:24:20.448Z,1.8
2023-02-14T05:25:21.578Z,1.7
2023-02-14T05:26:22.729Z,1.7
2023-02-14T05:27:24.152Z,1.8
2023-02-14T05:28:25.525Z,1.8
2023-02-14T05:29:26.708Z,1.8
2023-02-14T05:30:28.039Z,1.8
2023-02-14T05:31:29.642Z,1.8
2023-02-14T05:32:31.102Z,1.8
2023-02-14T05:33:32.554Z,1.8
2023-02-14T05:34:33.971Z,1.8
2023-02-14T05:35:35.139Z,1.8
2023-02-14T05:36:36.245Z,1.8
2023-02-14T05:37:37.698Z,1.8
2023-02-14T05:38:38.803Z,1.8
2023-02-14T05:39:40.210Z,1.8
2023-02-14T05:40:41.630Z,1.8
2023-02-14T05:41:43.043Z,1.8
2023-02-14T05:42:44.208Z,1.8
2023-02-14T05:43:45.366Z,1.8
2023-02-14T05:44:46.782Z,1.8
2023-02-14T05:45:47.962Z,1.8
2023-02-14T05:46:48.961Z,1.8
2023-02-14T05:47:50.392Z,1.8
2023-02-14T05:48:51.266Z,1.8
2023-02-14T05:49:52.405Z,1.8
2023-02-14T05:50:53.566Z,1.8
2023-02-14T05:51:54.775Z,1.8
2023-02-14T05:52:56.218Z,1.8
2023-02-14T05:53:57.326Z,1.8
2023-02-14T05:54:58.614Z,1.8
2023-02-14T05:55:59.470Z,1.8
2023-02-14T05:57:00.886Z,1.8
2023-02-14T05:58:02.310Z,1.8
2023-02-14T05:59:03.721Z,1.8
2023-02-14T06:00:05.134Z,1.8
2023-02-14T06:01:06.323Z,1.8
2023-02-14T06:02:07.833Z,1.7
2023-02-14T06:03:09.318Z,1.8
2023-02-14T06:04:10.729Z,1.8
2023-02-14T06:05:12.181Z,1.7
2023-02-14T06:06:13.112Z,1.7
2023-02-14T06:07:14.499Z,1.8
2023-02-14T06:08:15.686Z,1.7
2023-02-14T06:09:16.816Z,1.8
2023-02-14T06:10:17.948Z,1.8
2023-02-14T06:11:19.365Z,1.7
2023-02-14T06:12:20.789Z,1.7
2023-02-14T06:13:21.963Z,1.8
2023-02-14T06:14:23.095Z,1.8
2023-02-14T06:15:24.511Z,1.8
2023-02-14T06:16:25.463Z,1.7
2023-02-14T06:17:26.707Z,1.8
2023-02-14T06:18:27.860Z,1.7
2023-02-14T06:19:29.260Z,1.8
2023-02-14T06:20:30.408Z,1.8
2023-02-14T06:21:31.609Z,1.8
2023-02-14T06:22:32.720Z,1.8
2023-02-14T06:23:34.148Z,1.8
2023-02-14T06:24:35.561Z,1.8
2023-02-14T06:25:36.733Z,1.8
2023-02-14T06:26:37.863Z,1.8
2023-02-14T06:27:39.288Z,1.8
2023-02-14T06:28:40.685Z,1.8
2023-02-14T06:29:41.778Z,1.8
2023-02-14T06:30:43.125Z,1.8
2023-02-14T06:31:45.096Z,1.8
2023-02-14T06:32:46.676Z,1.8
2023-02-14T06:33:47.863Z,1.8
2023-02-14T06:34:48.690Z,1.8
2023-02-14T06:35:50.124Z,1.8
2023-02-14T06:36:51.569Z,1.8
2023-02-14T06:37:52.958Z,1.8
2023-02-14T06:38:54.400Z,1.8
2023-02-14T06:39:55.516Z,1.9
2023-02-14T06:40:56.367Z,1.8
2023-02-14T06:42:01.172Z,1.9
2023-02-14T06:43:02.367Z,1.9
2023-02-14T06:44:03.521Z,1.9
2023-02-14T06:45:04.912Z,1.9
2023-02-14T06:46:06.383Z,1.9
2023-02-14T06:47:07.896Z,1.9
2023-02-14T06:48:09.309Z,1.9
2023-02-14T06:49:10.728Z,1.9
2023-02-14T06:50:11.880Z,1.9
2023-02-14T06:51:12.721Z,1.9
2023-02-14T06:52:13.929Z,1.9
2023-02-14T06:53:15.118Z,1.9
2023-02-14T06:54:16.548Z,1.9
2023-02-14T06:55:17.670Z,1.9
2023-02-14T06:56:18.845Z,1.9
2023-02-14T06:57:20.026Z,1.9
2023-02-14T06:58:21.440Z,1.9
2023-02-14T06:59:22.635Z,1.9
2023-02-14T07:00:23.522Z,1.9
2023-02-14T07:01:24.715Z,1.9
2023-02-14T07:02:26.200Z,1.9
2023-02-14T07:03:27.433Z,1.9
2023-02-14T07:04:28.592Z,1.9
2023-02-14T07:05:29.524Z,2
2023-02-14T07:06:30.642Z,2
2023-02-14T07:07:32.091Z,2
2023-02-14T07:08:33.256Z,2
2023-02-14T07:09:34.706Z,2
2023-02-14T07:10:36.093Z,2
2023-02-14T07:11:37.506Z,2
2023-02-14T07:12:38.926Z,2
2023-02-14T07:13:40.140Z,2
2023-02-14T07:14:41.292Z,2
2023-02-14T07:15:42.731Z,2
2023-02-14T07:16:44.111Z,2
2023-02-14T07:17:45.528Z,2
2023-02-14T07:18:46.931Z,2
2023-02-14T07:19:48.090Z,2
2023-02-14T07:20:49.484Z,2
2023-02-14T07:21:50.907Z,2
2023-02-14T07:22:51.836Z,2
2023-02-14T07:23:53.219Z,2
2023-02-14T07:24:54.087Z,2.1
2023-02-14T07:25:55.493Z,2.1
2023-02-14T07:26:56.909Z,2.1
2023-02-14T07:27:58.327Z,2.1
2023-02-14T07:28:59.474Z,2.1
2023-02-14T07:30:01.568Z,2.1
2023-02-14T07:31:03.312Z,2.1
2023-02-14T07:32:06.032Z,2.1
2023-02-14T07:33:08.075Z,2.1
2023-02-14T07:34:09.491Z,2.2
2023-02-14T07:35:10.420Z,2.2
2023-02-14T07:36:11.686Z,2.2
2023-02-14T07:37:12.790Z,2.2
2023-02-14T07:38:13.954Z,2.2
2023-02-14T07:39:15.336Z,2.2
2023-02-14T07:40:16.783Z,2.2
2023-02-14T07:41:18.173Z,2.2
2023-02-14T07:42:19.583Z,2.3
2023-02-14T07:43:21.003Z,2.2
2023-02-14T07:44:22.418Z,2.3
2023-02-14T07:45:23.338Z,2.3
2023-02-14T07:46:24.770Z,2.3
2023-02-14T07:47:26.099Z,2.3
2023-02-14T07:48:29.430Z,2.3
2023-02-14T07:49:35.174Z,2.3
2023-02-14T07:50:36.328Z,2.3
2023-02-14T07:51:37.453Z,2.3
2023-02-14T07:52:38.589Z,2.3
2023-02-14T07:53:40.035Z,2.3
2023-02-14T07:54:40.952Z,2.4
2023-02-14T07:55:41.881Z,2.4
2023-02-14T07:56:43.269Z,2.4
2023-02-14T07:57:44.683Z,2.4
2023-02-14T07:58:46.097Z,2.4
2023-02-14T07:59:47.519Z,2.4
2023-02-14T08:00:49.200Z,2.4
2023-02-14T08:01:55.172Z,2.5
2023-02-14T08:02:56.715Z,2.5
2023-02-14T08:03:58.132Z,2.5
2023-02-14T08:04:59.637Z,2.5
2023-02-14T08:06:01.369Z,2.5
2023-02-14T08:07:02.760Z,2.5
2023-02-14T08:08:04.176Z,2.5
2023-02-14T08:09:05.619Z,2.5
2023-02-14T08:10:07.012Z,2.5
2023-02-14T08:11:08.442Z,2.6
2023-02-14T08:12:09.837Z,2.6
2023-02-14T08:13:11.262Z,2.6
2023-02-14T08:14:12.697Z,2.6
2023-02-14T08:15:14.093Z,2.7
2023-02-14T08:16:15.620Z,2.7
2023-02-14T08:17:17.028Z,2.7
2023-02-14T08:18:18.908Z,2.7
2023-02-14T08:19:20.335Z,2.8
2023-02-14T08:20:21.735Z,2.8
2023-02-14T08:21:23.168Z,2.8
2023-02-14T08:22:24.564Z,2.8
2023-02-14T08:23:25.980Z,2.8
2023-02-14T08:24:27.438Z,2.8
2023-02-14T08:25:28.876Z,2.8
2023-02-14T08:26:30.325Z,2.8
2023-02-14T08:27:31.716Z,2.9
2023-02-14T08:28:33.409Z,2.9
2023-02-14T08:29:34.978Z,2.9
2023-02-14T08:30:36.398Z,2.9
2023-02-14T08:31:37.930Z,2.9
2023-02-14T08:32:39.475Z,3
2023-02-14T08:33:41.675Z,3
2023-02-14T08:34:43.148Z,3
2023-02-14T08:35:44.643Z,3
2023-02-14T08:36:46.067Z,3.1
2023-02-14T08:37:47.473Z,3.1
2023-02-14T08:38:48.889Z,3.1
2023-02-14T08:39:50.334Z,3.1
2023-02-14T08:40:51.760Z,3.2
2023-02-14T08:41:53.195Z,3.2
2023-02-14T08:42:54.589Z,3.2
2023-02-14T08:43:56.007Z,3.3
2023-02-14T08:44:57.420Z,3.3
2023-02-14T08:45:58.985Z,3.3
2023-02-14T08:47:01.714Z,3.4
2023-02-14T08:48:03.274Z,3.4
2023-02-14T08:49:04.744Z,3.4
2023-02-14T08:50:06.122Z,3.4
2023-02-14T08:51:07.537Z,3.4
2023-02-14T08:52:08.965Z,3.4
2023-02-14T08:53:10.376Z,3.5
2023-02-14T08:54:11.789Z,3.5
2023-02-14T08:55:13.236Z,3.5
2023-02-14T08:56:14.693Z,3.5
2023-02-14T08:57:16.154Z,3.5
2023-02-14T08:58:17.602Z,3.5
2023-02-14T08:59:19.018Z,3.5
2023-02-14T09:00:20.436Z,3.6
2023-02-14T09:01:21.921Z,3.6
2023-02-14T09:02:23.665Z,3.6
2023-02-14T09:03:25.100Z,3.6
2023-02-14T09:04:26.567Z,3.7
2023-02-14T09:05:28.285Z,3.7
2023-02-14T09:06:29.729Z,3.7
2023-02-14T09:07:31.161Z,3.7
2023-02-14T09:08:32.557Z,3.7
2023-02-14T09:09:33.972Z,3.7
2023-02-14T09:10:35.569Z,3.7
2023-02-14T09:11:36.963Z,3.8
2023-02-14T09:12:38.374Z,3.8
2023-02-14T09:13:39.780Z,3.8
2023-02-14T09:14:41.196Z,3.8
2023-02-14T09:15:42.641Z,3.9
2023-02-14T09:16:44.206Z,3.9
2023-02-14T09:17:45.865Z,3.9
2023-02-14T09:18:47.520Z,4
2023-02-14T09:19:49.111Z,4
2023-02-14T09:20:50.713Z,4
2023-02-14T09:21:52.223Z,4
2023-02-14T09:22:53.634Z,4.1
2023-02-14T09:23:55.036Z,4.1
2023-02-14T09:24:56.447Z,4.1
2023-02-14T09:25:57.924Z,4.2
2023-02-14T09:26:59.297Z,4.2
2023-02-14T09:28:00.740Z,4.2
2023-02-14T09:29:02.129Z,4.2
2023-02-14T09:30:03.575Z,4.3
2023-02-14T09:31:05.374Z,4.3
2023-02-14T09:32:07.025Z,4.3
2023-02-14T09:33:09.063Z,4.3
2023-02-14T09:34:10.443Z,4.4
2023-02-14T09:35:11.862Z,4.4
2023-02-14T09:36:13.271Z,4.4
2023-02-14T09:37:14.687Z,4.5
2023-02-14T09:38:16.130Z,4.5
2023-02-14T09:39:17.519Z,4.6
2023-02-14T09:40:18.932Z,4.6
2023-02-14T09:41:20.527Z,4.6
2023-02-14T09:42:21.902Z,4.7
2023-02-14T09:43:23.344Z,4.7
2023-02-14T09:44:24.786Z,4.7
2023-02-14T09:45:26.232Z,4.7
2023-02-14T09:46:27.958Z,4.7
2023-02-14T09:47:29.371Z,4.8
2023-02-14T09:48:30.798Z,4.8
2023-02-14T09:49:32.365Z,4.8
2023-02-14T09:50:34.502Z,4.8
2023-02-14T09:51:35.991Z,4.8
2023-02-14T09:52:37.410Z,4.9
2023-02-14T09:53:38.838Z,4.9
2023-02-14T09:54:40.541Z,4.9
2023-02-14T09:55:41.942Z,5
2023-02-14T09:56:51.184Z,5
2023-02-14T09:57:53.309Z,5
2023-02-14T09:58:54.792Z,5.1
2023-02-14T09:59:56.171Z,5.1
2023-02-14T10:00:57.737Z,5.1
2023-02-14T10:02:00.564Z,5.2
2023-02-14T10:03:01.965Z,5.2
2023-02-14T10:04:03.531Z,5.2
2023-02-14T10:05:04.922Z,5.2
2023-02-14T10:06:06.343Z,5.3
2023-02-14T10:07:07.753Z,5.3
2023-02-14T10:08:09.175Z,5.3
2023-02-14T10:09:10.614Z,5.3
2023-02-14T10:10:12.004Z,5.3
2023-02-14T10:11:13.422Z,5.4
2023-02-14T10:12:14.856Z,5.4
2023-02-14T10:13:16.253Z,5.4
2023-02-14T10:14:17.702Z,5.5
2023-02-14T10:15:19.091Z,5.5
2023-02-14T10:16:20.526Z,5.5
2023-02-14T10:17:22.043Z,5.6
2023-02-14T10:18:23.455Z,5.6
2023-02-14T10:19:24.878Z,5.6
2023-02-14T10:20:26.283Z,5.6
2023-02-14T10:21:27.788Z,5.6
2023-02-14T10:22:29.234Z,5.6
2023-02-14T10:23:30.633Z,5.6
2023-02-14T10:24:32.070Z,5.6
2023-02-14T10:25:33.475Z,5.6
2023-02-14T10:26:34.880Z,5.5
2023-02-14T10:27:36.332Z,5.5
2023-02-14T10:28:37.722Z,5.4
2023-02-14T10:29:39.162Z,5.4
2023-02-14T10:30:40.645Z,5.4
2023-02-14T10:31:42.536Z,5.4
2023-02-14T10:32:44.460Z,5.4
2023-02-14T10:33:45.877Z,5.4
2023-02-14T10:34:47.630Z,5.4
2023-02-14T10:35:49.013Z,5.5
2023-02-14T10:36:50.429Z,5.5
2023-02-14T10:37:51.837Z,5.5
2023-02-14T10:38:53.254Z,5.5
2023-02-14T10:39:54.680Z,5.6
2023-02-14T10:40:56.155Z,5.6
2023-02-14T10:41:57.838Z,5.6
2023-02-14T10:42:59.280Z,5.6
2023-02-14T10:44:00.670Z,5.6
2023-02-14T10:45:02.105Z,5.7
2023-02-14T10:46:03.718Z,5.7
2023-02-14T10:47:05.563Z,5.7
2023-02-14T10:48:06.969Z,5.7
2023-02-14T10:49:08.382Z,5.8
2023-02-14T10:50:09.828Z,5.8
2023-02-14T10:51:11.218Z,5.8
2023-02-14T10:52:12.628Z,5.8
2023-02-14T10:53:14.075Z,5.9
2023-02-14T10:54:15.537Z,5.9
2023-02-14T10:55:31.338Z,5.9
2023-02-14T10:56:34.028Z,5.9
2023-02-14T10:57:35.448Z,6
2023-02-14T10:58:36.887Z,6
2023-02-14T10:59:38.280Z,6
2023-02-14T11:00:39.706Z,6
2023-02-14T11:01:41.181Z,6
2023-02-14T11:02:42.231Z,6
2023-02-14T11:03:44.288Z,6
2023-02-14T11:04:45.867Z,6
2023-02-14T11:05:47.299Z,6.1
2023-02-14T11:06:48.692Z,6.1
2023-02-14T11:07:50.182Z,6.1
2023-02-14T11:08:51.731Z,6.1
2023-02-14T11:09:53.153Z,6.1
2023-02-14T11:10:54.682Z,6.1
2023-02-14T11:11:56.365Z,6.1
2023-02-14T11:12:57.780Z,6.1
2023-02-14T11:13:59.210Z,6.2
2023-02-14T11:15:00.616Z,6.2
2023-02-14T11:16:02.458Z,6.2
2023-02-14T11:17:04.592Z,6.2
2023-02-14T11:18:06.000Z,6.3
2023-02-14T11:19:07.413Z,6.3
2023-02-14T11:20:08.828Z,6.3
2023-02-14T11:21:10.265Z,6.4
2023-02-14T11:22:11.662Z,6.4
2023-02-14T11:23:13.076Z,6.4
2023-02-14T11:24:14.494Z,6.5
2023-02-14T11:25:15.909Z,6.5
2023-02-14T11:26:17.347Z,6.5
2023-02-14T11:27:18.739Z,6.5
2023-02-14T11:28:20.156Z,6.6
2023-02-14T11:29:21.607Z,6.6
2023-02-14T11:30:23.062Z,6.6
2023-02-14T11:31:24.973Z,6.6
2023-02-14T11:32:26.774Z,6.7
2023-02-14T11:33:28.178Z,6.7
2023-02-14T11:34:29.596Z,6.7
2023-02-14T11:35:31.022Z,6.7
2023-02-14T11:36:32.451Z,6.7
2023-02-14T11:37:33.853Z,6.7
2023-02-14T11:38:35.259Z,6.7
2023-02-14T11:39:36.692Z,6.7
2023-02-14T11:40:38.100Z,6.7
2023-02-14T11:41:39.529Z,6.7
2023-02-14T11:42:40.921Z,6.7
2023-02-14T11:43:42.376Z,6.8
2023-02-14T11:44:43.876Z,6.8
2023-02-14T11:45:45.337Z,6.8
2023-02-14T11:46:52.972Z,6.9
2023-02-14T11:47:55.285Z,6.9
2023-02-14T11:48:56.694Z,7
2023-02-14T11:49:58.118Z,7
2023-02-14T11:50:59.766Z,7
2023-02-14T11:52:02.148Z,7.1
2023-02-14T11:53:03.559Z,7.1
2023-02-14T11:54:05.471Z,7.1
2023-02-14T11:55:06.909Z,7.2
2023-02-14T11:56:08.322Z,7.2
2023-02-14T11:57:09.753Z,7.2
2023-02-14T11:58:11.225Z,7.3
2023-02-14T11:59:12.650Z,7.3
2023-02-14T12:00:14.083Z,7.4
2023-02-14T12:01:15.487Z,7.4
2023-02-14T12:02:17.023Z,7.4
2023-02-14T12:03:18.616Z,7.4
2023-02-14T12:04:20.197Z,7.4
2023-02-14T12:05:21.608Z,7.4
2023-02-14T12:06:23.030Z,7.5
2023-02-14T12:07:24.483Z,7.5
2023-02-14T12:08:25.866Z,7.5
2023-02-14T12:09:27.279Z,7.5
2023-02-14T12:10:28.692Z,7.5
2023-02-14T12:11:30.106Z,7.5
2023-02-14T12:12:31.532Z,7.5
2023-02-14T12:13:32.941Z,7.5
2023-02-14T12:14:34.376Z,7.6
2023-02-14T12:15:35.814Z,7.6
2023-02-14T12:16:37.527Z,7.6
2023-02-14T12:17:38.957Z,7.7
2023-02-14T12:18:40.390Z,7.7
2023-02-14T12:19:41.775Z,7.6
2023-02-14T12:20:43.191Z,7.6
2023-02-14T12:21:44.605Z,7.6
2023-02-14T12:22:46.039Z,7.6
2023-02-14T12:23:47.444Z,7.6
2023-02-14T12:24:48.861Z,7.6
2023-02-14T12:25:50.266Z,7.5
2023-02-14T12:26:51.685Z,7.5
2023-02-14T12:27:53.121Z,7.5
2023-02-14T12:28:54.512Z,7.5
2023-02-14T12:29:55.957Z,7.5
2023-02-14T12:30:57.684Z,7.5
2023-02-14T12:32:00.719Z,7.5
2023-02-14T12:33:02.657Z,7.5
2023-02-14T12:34:04.037Z,7.5
2023-02-14T12:35:05.455Z,7.5
2023-02-14T12:36:06.877Z,7.5
2023-02-14T12:37:08.001Z,7.5
2023-02-14T12:38:09.908Z,7.4
2023-02-14T12:39:11.282Z,7.4
2023-02-14T12:40:12.711Z,7.4
2023-02-14T12:41:14.117Z,7.4
2023-02-14T12:42:15.539Z,7.4
2023-02-14T12:43:16.976Z,7.4
2023-02-14T12:44:18.367Z,7.4
2023-02-14T12:45:19.569Z,7.4
2023-02-14T12:46:20.856Z,7.4
2023-02-14T12:47:22.297Z,7.4
2023-02-14T12:48:23.732Z,7.4
2023-02-14T12:49:25.129Z,7.4
2023-02-14T12:50:26.538Z,7.4
2023-02-14T12:51:27.963Z,7.4
2023-02-14T12:52:29.369Z,7.4
2023-02-14T12:53:30.801Z,7.4
2023-02-14T12:54:31.919Z,7.4
2023-02-14T12:55:33.340Z,7.4
2023-02-14T12:56:34.752Z,7.4
2023-02-14T12:57:36.172Z,7.4
2023-02-14T12:58:37.592Z,7.4
2023-02-14T12:59:38.999Z,7.4
2023-02-14T13:00:40.412Z,7.4
2023-02-14T13:01:41.650Z,7.4
2023-02-14T13:02:43.492Z,7.4
2023-02-14T13:03:45.036Z,7.5
2023-02-14T13:04:46.438Z,7.5
2023-02-14T13:05:47.857Z,7.5
2023-02-14T13:06:48.989Z,7.5
2023-02-14T13:07:50.128Z,7.5
2023-02-14T13:08:51.554Z,7.5
2023-02-14T13:09:52.976Z,7.5
2023-02-14T13:10:54.381Z,7.5
2023-02-14T13:11:55.793Z,7.5
2023-02-14T13:12:56.934Z,7.6
2023-02-14T13:13:58.365Z,7.6
2023-02-14T13:14:59.769Z,7.7
2023-02-14T13:16:01.225Z,7.7
2023-02-14T13:17:02.649Z,7.7
2023-02-14T13:18:04.041Z,7.7
2023-02-14T13:19:05.224Z,7.8
2023-02-14T13:20:06.621Z,7.8
2023-02-14T13:21:08.036Z,7.8
2023-02-14T13:22:09.177Z,7.8
2023-02-14T13:23:10.592Z,7.9
2023-02-14T13:24:12.020Z,7.9
2023-02-14T13:25:13.428Z,7.9
2023-02-14T13:26:14.615Z,7.9
2023-02-14T13:27:16.028Z,8
2023-02-14T13:28:17.448Z,8
2023-02-14T13:29:18.874Z,8
2023-02-14T13:30:20.394Z,8
2023-02-14T13:31:21.839Z,8
2023-02-14T13:32:23.662Z,8
2023-02-14T13:33:24.758Z,8
2023-02-14T13:34:26.196Z,8
2023-02-14T13:35:27.792Z,8
2023-02-14T13:36:30.996Z,8
2023-02-14T13:37:32.570Z,8
2023-02-14T13:38:33.974Z,8
2023-02-14T13:39:37.747Z,8
2023-02-14T13:40:42.737Z,8
2023-02-14T13:41:44.150Z,8
2023-02-14T13:42:45.569Z,7.9
2023-02-14T13:43:46.699Z,7.9
2023-02-14T13:44:48.144Z,7.9
2023-02-14T13:45:49.530Z,7.9
2023-02-14T13:46:51.040Z,7.9
2023-02-14T13:47:52.724Z,7.9
2023-02-14T13:48:54.129Z,7.8
2023-02-14T13:49:55.599Z,7.8
2023-02-14T13:50:56.970Z,7.8
2023-02-14T13:51:58.989Z,7.8
2023-02-14T13:53:00.399Z,7.8
2023-02-14T13:54:01.865Z,7.8
2023-02-14T13:55:03.278Z,7.8
2023-02-14T13:56:04.659Z,7.8
2023-02-14T13:57:06.076Z,7.8
2023-02-14T13:58:07.499Z,7.8
2023-02-14T13:59:08.916Z,7.7
2023-02-14T14:00:10.358Z,7.7
2023-02-14T14:01:11.535Z,7.7
2023-02-14T14:02:12.996Z,7.7
2023-02-14T14:03:14.406Z,7.7
2023-02-14T14:04:15.936Z,7.7
2023-02-14T14:05:17.541Z,7.7
2023-02-14T14:06:18.925Z,7.7
2023-02-14T14:07:20.340Z,7.7
2023-02-14T14:08:21.755Z,7.7
2023-02-14T14:09:23.174Z,7.7
2023-02-14T14:10:24.615Z,7.7
2023-02-14T14:11:26.043Z,7.7
2023-02-14T14:12:27.447Z,7.7
2023-02-14T14:13:29.029Z,7.6
2023-02-14T14:14:30.444Z,7.6